createdAt,value
2018-10-18T07:24:08.394Z,70.220947
2018-10-18T07:24:27.670Z,70.220947
2018-10-18T07:24:59.348Z,70.117188
2018-10-18T07:25:18.709Z,70.526123
2018-10-18T07:25:37.985Z,70.324707
2018-10-18T07:25:57.306Z,70.220947
2018-10-18T07:26:16.650Z,70.220947
2018-10-18T07:26:35.977Z,70.19043
2018-10-18T07:27:15.942Z,69.98291
2018-10-18T07:27:35.484Z,69.98291
2018-10-18T07:27:54.984Z,69.885254
2018-10-18T07:28:14.493Z,69.683838
2018-10-18T07:28:33.991Z,69.781494
2018-10-18T07:28:53.480Z,69.885254
2018-10-18T07:29:13.094Z,70.019531
2018-10-18T07:29:32.616Z,70.220947
2018-10-18T07:29:52.174Z,70.220947
2018-10-18T07:30:11.708Z,70.117188
2018-10-18T07:30:31.191Z,70.117188
2018-10-18T07:30:50.697Z,69.98291
2018-10-18T07:31:10.206Z,69.98291
2018-10-18T07:31:29.694Z,69.885254
2018-10-18T07:31:49.379Z,69.98291
2018-10-18T07:32:08.931Z,69.885254
2018-10-18T07:32:28.417Z,69.885254
2018-10-18T07:32:47.918Z,69.885254
2018-10-18T07:33:07.506Z,69.885254
2018-10-18T07:33:30.778Z,69.885254
2018-10-18T07:33:50.354Z,69.885254
2018-10-18T07:34:09.853Z,69.781494
2018-10-18T07:34:29.507Z,69.781494
2018-10-18T07:34:49.071Z,69.683838
2018-10-18T07:35:08.777Z,69.781494
2018-10-18T07:35:28.125Z,69.781494
2018-10-18T07:35:47.757Z,69.885254
2018-10-18T07:36:07.279Z,69.781494
2018-10-18T07:36:26.770Z,69.750977
2018-10-18T07:36:46.274Z,69.647217
2018-10-18T07:37:05.797Z,69.647217
2018-10-18T07:37:25.368Z,69.647217
2018-10-18T07:37:44.901Z,69.647217
2018-10-18T07:38:04.432Z,69.647217
2018-10-18T07:38:23.957Z,69.750977
2018-10-18T07:38:43.482Z,69.750977
2018-10-18T07:39:02.979Z,69.750977
2018-10-18T07:39:22.532Z,69.854736
2018-10-18T07:39:42.063Z,69.952393
2018-10-18T07:40:01.569Z,69.854736
2018-10-18T07:40:21.083Z,70.056152
2018-10-18T07:40:40.596Z,69.952393
2018-10-18T07:41:00.285Z,70.153809
2018-10-18T07:41:19.900Z,70.458984
2018-10-18T07:41:39.331Z,70.257568
2018-10-18T07:41:58.837Z,70.257568
2018-10-18T07:42:18.409Z,70.257568
2018-10-18T07:42:37.964Z,70.355225
2018-10-18T07:42:57.471Z,70.153809
2018-10-18T07:43:16.968Z,69.952393
2018-10-18T07:43:36.520Z,70.056152
2018-10-18T07:43:56.024Z,70.056152
2018-10-18T07:44:15.526Z,70.056152
2018-10-18T07:44:35.112Z,70.056152
2018-10-18T07:44:54.722Z,70.056152
2018-10-18T07:45:14.226Z,70.056152
2018-10-18T07:45:33.750Z,70.153809
2018-10-18T07:45:53.303Z,70.257568
2018-10-18T07:46:12.856Z,70.257568
2018-10-18T07:46:32.422Z,70.257568
2018-10-18T07:46:52.214Z,70.355225
2018-10-18T07:47:11.553Z,70.355225
2018-10-18T07:47:31.070Z,70.257568
2018-10-18T07:47:50.919Z,70.257568
2018-10-18T07:48:10.624Z,70.288086
2018-10-18T07:48:29.999Z,70.288086
2018-10-18T07:48:49.547Z,70.288086
2018-10-18T07:49:09.072Z,70.257568
2018-10-18T07:49:28.622Z,70.19043
2018-10-18T07:49:48.133Z,70.489502
2018-10-18T07:50:07.656Z,70.593262
2018-10-18T07:50:27.213Z,70.593262
2018-10-18T07:50:46.709Z,70.593262
2018-10-18T07:51:06.236Z,70.391846
2018-10-18T07:51:25.764Z,70.19043
2018-10-18T07:51:45.423Z,69.98291
2018-10-18T07:52:04.935Z,69.885254
2018-10-18T07:52:24.449Z,69.683838
2018-10-18T07:52:44.947Z,69.580078
2018-10-18T07:53:04.568Z,69.683838
2018-10-18T07:53:24.035Z,69.683838
2018-10-18T07:53:43.576Z,69.482422
2018-10-18T07:54:03.190Z,69.482422
2018-10-18T07:54:22.576Z,69.482422
2018-10-18T07:54:42.181Z,69.482422
2018-10-18T07:55:01.694Z,69.482422
2018-10-18T07:55:21.272Z,69.281006
2018-10-18T07:55:40.796Z,69.281006
2018-10-18T07:56:00.321Z,69.281006
2018-10-18T07:56:19.809Z,69.281006
2018-10-18T07:56:39.399Z,69.281006
2018-10-18T07:56:58.931Z,69.281006
2018-10-18T07:57:18.445Z,69.177246
2018-10-18T07:57:37.945Z,69.07959
2018-10-18T07:57:57.450Z,69.07959
2018-10-18T07:58:16.972Z,69.348145
2018-10-18T07:58:36.466Z,69.146729
2018-10-18T07:58:57.059Z,68.945312
2018-10-18T07:59:16.545Z,68.841553
2018-10-18T07:59:36.115Z,68.841553
2018-10-18T07:59:55.661Z,68.841553
2018-10-18T08:00:15.255Z,68.945312
2018-10-18T08:00:34.723Z,68.54248
2018-10-18T08:00:54.235Z,68.54248
2018-10-18T08:01:13.753Z,68.945312
2018-10-18T08:01:33.281Z,68.841553
2018-10-18T08:01:52.794Z,68.640137
2018-10-18T08:02:12.284Z,68.640137
2018-10-18T08:02:31.791Z,68.945312
2018-10-18T08:02:51.420Z,68.945312
2018-10-18T08:03:10.935Z,68.743896
2018-10-18T08:03:30.454Z,68.640137
2018-10-18T08:03:49.976Z,68.54248
2018-10-18T08:04:09.460Z,68.54248
2018-10-18T08:04:28.978Z,68.54248
2018-10-18T08:04:48.592Z,68.438721
2018-10-18T08:05:08.079Z,68.035889
2018-10-18T08:05:27.591Z,68.035889
2018-10-18T08:05:47.090Z,68.640137
2018-10-18T08:06:06.643Z,68.640137
2018-10-18T08:06:26.139Z,68.438721
2018-10-18T08:06:45.656Z,68.237305
2018-10-18T08:07:05.180Z,68.035889
2018-10-18T08:07:24.634Z,67.932129
2018-10-18T08:07:44.138Z,68.035889
2018-10-18T08:08:03.653Z,68.334961
2018-10-18T08:08:24.144Z,68.133545
2018-10-18T08:08:43.636Z,67.730713
2018-10-18T08:09:03.149Z,67.932129
2018-10-18T08:09:22.627Z,67.932129
2018-10-18T08:09:44.086Z,67.834473
2018-10-18T08:10:04.724Z,67.633057
2018-10-18T08:10:24.239Z,67.529297
2018-10-18T08:10:43.735Z,67.327881
2018-10-18T08:11:03.292Z,67.633057
2018-10-18T08:11:22.755Z,67.633057
2018-10-18T08:11:42.263Z,67.431641
2018-10-18T08:12:01.787Z,67.327881
2018-10-18T08:12:21.342Z,67.529297
2018-10-18T08:12:40.892Z,67.327881
2018-10-18T08:13:00.450Z,67.834473
2018-10-18T08:13:20.015Z,67.730713
2018-10-18T08:13:40.535Z,67.730713
2018-10-18T08:14:00.058Z,67.327881
2018-10-18T08:14:19.833Z,67.022705
2018-10-18T08:14:39.453Z,67.126465
2018-10-18T08:14:59.106Z,68.743896
2018-10-18T08:15:18.621Z,67.932129
2018-10-18T08:15:38.129Z,67.834473
2018-10-18T08:15:57.663Z,67.327881
2018-10-18T08:16:17.193Z,67.230225
2018-10-18T08:16:36.737Z,67.126465
2018-10-18T08:16:56.390Z,67.126465
2018-10-18T08:17:15.981Z,67.126465
2018-10-18T08:17:35.452Z,66.925049
2018-10-18T08:17:54.987Z,67.059326
2018-10-18T08:18:14.491Z,67.260742
2018-10-18T08:18:33.986Z,67.431641
2018-10-18T08:18:53.566Z,67.529297
2018-10-18T08:19:13.249Z,67.431641
2018-10-18T08:19:32.630Z,67.633057
2018-10-18T08:19:52.222Z,67.529297
2018-10-18T08:20:11.729Z,67.529297
2018-10-18T08:20:31.249Z,67.529297
2018-10-18T08:20:50.753Z,67.431641
2018-10-18T08:21:10.539Z,67.431641
2018-10-18T08:21:30.076Z,67.327881
2018-10-18T08:21:49.606Z,67.327881
2018-10-18T08:22:09.125Z,67.327881
2018-10-18T08:22:28.721Z,67.230225
2018-10-18T08:22:48.178Z,67.126465
2018-10-18T08:23:07.723Z,67.022705
2018-10-18T08:23:27.208Z,67.230225
2018-10-18T08:23:47.745Z,67.126465
2018-10-18T08:24:07.274Z,67.230225
2018-10-18T08:24:26.776Z,67.230225
2018-10-18T08:24:46.275Z,67.230225
2018-10-18T08:25:05.870Z,67.431641
2018-10-18T08:25:25.386Z,67.327881
2018-10-18T08:25:45.903Z,67.327881
2018-10-18T08:26:05.478Z,67.431641
2018-10-18T08:26:24.988Z,67.431641
2018-10-18T08:26:44.522Z,67.529297
2018-10-18T08:27:04.071Z,67.327881
2018-10-18T08:27:23.585Z,67.022705
2018-10-18T08:27:43.090Z,66.925049
2018-10-18T08:28:02.674Z,66.821289
2018-10-18T08:28:22.242Z,66.821289
2018-10-18T08:28:41.753Z,66.925049
2018-10-18T08:29:01.235Z,66.619873
2018-10-18T08:29:20.758Z,66.925049
2018-10-18T08:29:40.452Z,67.230225
2018-10-18T08:30:00.993Z,67.126465
2018-10-18T08:30:20.504Z,67.022705
2018-10-18T08:30:40.007Z,66.925049
2018-10-18T08:30:59.597Z,66.821289
2018-10-18T08:31:19.250Z,66.522217
2018-10-18T08:31:38.704Z,66.522217
2018-10-18T08:31:58.133Z,66.418457
2018-10-18T08:32:17.665Z,66.619873
2018-10-18T08:32:37.197Z,66.619873
2018-10-18T08:32:56.747Z,66.522217
2018-10-18T08:33:16.278Z,66.418457
2018-10-18T08:33:35.852Z,66.522217
2018-10-18T08:33:55.383Z,66.320801
2018-10-18T08:34:14.917Z,66.320801
2018-10-18T08:34:34.459Z,66.418457
2018-10-18T08:34:53.996Z,66.418457
2018-10-18T08:35:13.592Z,66.418457
2018-10-18T08:35:33.129Z,66.619873
2018-10-18T08:35:52.720Z,66.821289
2018-10-18T08:36:12.219Z,66.723633
2018-10-18T08:36:31.731Z,66.693115
2018-10-18T08:36:51.290Z,66.693115
2018-10-18T08:37:10.906Z,66.491699
2018-10-18T08:37:30.359Z,66.693115
2018-10-18T08:37:50.990Z,66.790771
2018-10-18T08:38:10.539Z,66.894531
2018-10-18T08:38:29.939Z,66.992188
2018-10-18T08:38:49.498Z,66.992188
2018-10-18T08:39:08.976Z,66.693115
2018-10-18T08:39:28.497Z,66.790771
2018-10-18T08:39:48.124Z,66.894531
2018-10-18T08:40:07.781Z,67.39502
2018-10-18T08:40:27.286Z,66.894531
2018-10-18T08:40:46.824Z,66.894531
2018-10-18T08:41:06.386Z,67.126465
2018-10-18T08:41:25.905Z,67.431641
2018-10-18T08:41:45.552Z,67.529297
2018-10-18T08:42:05.048Z,67.126465
2018-10-18T08:42:24.553Z,67.529297
2018-10-18T08:42:44.106Z,67.932129
2018-10-18T08:43:03.686Z,68.133545
2018-10-18T08:43:23.150Z,67.932129
2018-10-18T08:43:42.786Z,67.498779
2018-10-18T08:44:02.387Z,67.230225
2018-10-18T08:44:21.837Z,67.193604
2018-10-18T08:44:41.288Z,67.193604
2018-10-18T08:45:00.820Z,67.095947
2018-10-18T08:45:20.402Z,67.022705
2018-10-18T08:45:39.959Z,67.095947
2018-10-18T08:46:00.607Z,67.230225
2018-10-18T08:46:20.182Z,67.126465
2018-10-18T08:46:39.743Z,66.925049
2018-10-18T08:47:00.369Z,66.925049
2018-10-18T08:47:19.906Z,67.230225
2018-10-18T08:47:39.431Z,67.297363
2018-10-18T08:47:58.922Z,67.498779
2018-10-18T08:48:18.427Z,67.095947
2018-10-18T08:48:37.934Z,66.992188
2018-10-18T08:48:57.499Z,66.790771
2018-10-18T08:49:17.154Z,66.894531
2018-10-18T08:49:36.553Z,66.790771
2018-10-18T08:49:56.252Z,66.821289
2018-10-18T08:50:15.838Z,66.723633
2018-10-18T08:50:35.359Z,66.619873
2018-10-18T08:50:54.889Z,66.723633
2018-10-18T08:51:14.402Z,66.418457
2018-10-18T08:51:33.929Z,66.522217
2018-10-18T08:51:53.555Z,66.522217
2018-10-18T08:52:13.077Z,66.619873
2018-10-18T08:52:32.608Z,66.821289
2018-10-18T08:52:52.092Z,66.925049
2018-10-18T08:53:11.602Z,66.619873
2018-10-18T08:53:31.105Z,66.522217
2018-10-18T08:53:50.611Z,66.320801
2018-10-18T08:54:10.124Z,66.418457
2018-10-18T08:54:29.640Z,66.552734
2018-10-18T08:54:49.159Z,66.75415
2018-10-18T08:55:08.792Z,67.260742
2018-10-18T08:55:28.273Z,67.663574
2018-10-18T08:55:47.784Z,67.730713
2018-10-18T08:56:07.392Z,67.834473
2018-10-18T08:56:27.009Z,67.633057
2018-10-18T08:56:56.958Z,66.925049
2018-10-18T08:57:23.865Z,66.723633
2018-10-18T08:57:43.465Z,66.619873
2018-10-18T08:58:03.969Z,66.955566
2018-10-18T08:58:23.506Z,67.358398
2018-10-18T08:58:43.118Z,67.358398
2018-10-18T08:59:02.733Z,67.156982
2018-10-18T08:59:22.359Z,67.559814
2018-10-18T08:59:41.722Z,67.663574
2018-10-18T09:00:01.240Z,67.86499
2018-10-18T09:00:20.789Z,67.834473
2018-10-18T09:00:40.362Z,67.834473
2018-10-18T09:00:59.913Z,67.730713
2018-10-18T09:01:19.412Z,67.529297
2018-10-18T09:01:38.930Z,67.529297
2018-10-18T09:01:58.506Z,67.126465
2018-10-18T09:02:18.041Z,67.022705
2018-10-18T09:02:38.648Z,67.633057
2018-10-18T09:02:58.748Z,67.730713
2018-10-18T09:03:20.053Z,67.834473
2018-10-18T09:03:40.626Z,68.035889
2018-10-18T09:04:01.015Z,68.035889
2018-10-18T09:04:21.594Z,68.237305
2018-10-18T09:04:42.112Z,68.438721
2018-10-18T09:05:02.577Z,68.334961
2018-10-18T09:05:24.117Z,68.438721
2018-10-18T09:05:44.555Z,68.640137
2018-10-18T09:06:05.081Z,68.408203
2018-10-18T09:06:25.393Z,68.945312
2018-10-18T09:06:46.489Z,69.616699
2018-10-18T09:07:07.281Z,69.921875
2018-10-18T09:07:27.652Z,69.818115
2018-10-18T09:07:48.163Z,69.921875
2018-10-18T09:08:08.401Z,69.818115
2018-10-18T09:08:28.871Z,69.921875
2018-10-18T09:08:50.160Z,69.818115
2018-10-18T09:09:10.724Z,69.311523
2018-10-18T09:09:31.007Z,69.213867
2018-10-18T09:09:51.243Z,69.445801
2018-10-18T09:10:11.670Z,69.549561
2018-10-18T09:10:32.426Z,69.348145
2018-10-18T09:10:52.894Z,70.153809
2018-10-18T09:11:13.003Z,70.6604
2018-10-18T09:11:33.488Z,70.556641
2018-10-18T09:11:53.875Z,70.458984
2018-10-18T09:12:14.310Z,70.355225
2018-10-18T09:12:34.657Z,70.153809
2018-10-18T09:12:54.992Z,70.056152
2018-10-18T09:13:15.409Z,69.854736
2018-10-18T09:13:35.960Z,69.952393
2018-10-18T09:13:56.460Z,69.952393
2018-10-18T09:14:16.952Z,70.153809
2018-10-18T09:14:37.246Z,70.355225
2018-10-18T09:14:57.317Z,70.355225
2018-10-18T09:15:18.880Z,69.952393
2018-10-18T09:15:39.391Z,70.056152
2018-10-18T09:15:59.840Z,69.750977
2018-10-18T09:16:20.148Z,69.549561
2018-10-18T09:16:40.585Z,69.854736
2018-10-18T09:17:01.370Z,69.952393
2018-10-18T09:17:21.739Z,70.153809
2018-10-18T09:17:43.318Z,70.123291
2018-10-18T09:18:03.843Z,70.324707
2018-10-18T09:18:24.371Z,70.422363
2018-10-18T09:18:44.674Z,70.825195
2018-10-18T09:19:05.087Z,69.818115
2018-10-18T09:19:26.090Z,69.720459
2018-10-18T09:19:46.692Z,69.921875
2018-10-18T09:20:08.072Z,70.019531
2018-10-18T09:20:28.476Z,70.019531
2018-10-18T09:20:49.043Z,70.220947
2018-10-18T09:21:09.533Z,70.123291
2018-10-18T09:21:30.486Z,70.422363
2018-10-18T09:21:51.892Z,70.123291
2018-10-18T09:22:13.078Z,70.220947
2018-10-18T09:22:34.516Z,70.526123
2018-10-18T09:22:55.456Z,70.623779
2018-10-18T09:23:17.939Z,70.623779
2018-10-18T09:23:38.543Z,70.825195
2018-10-18T09:23:59.253Z,70.526123
2018-10-18T09:24:20.293Z,70.526123
2018-10-18T09:24:41.557Z,70.220947
2018-10-18T09:25:03.048Z,70.123291
2018-10-18T09:25:24.359Z,70.422363
2018-10-18T09:25:45.667Z,70.526123
2018-10-18T09:26:06.879Z,69.519043
2018-10-18T09:26:28.866Z,69.311523
2018-10-18T09:26:50.327Z,69.519043
2018-10-18T09:27:11.497Z,69.720459
2018-10-18T09:27:32.520Z,69.921875
2018-10-18T09:27:54.014Z,69.818115
2018-10-18T09:28:14.941Z,69.921875
2018-10-18T09:28:35.736Z,70.019531
2018-10-18T09:28:59.055Z,69.921875
2018-10-18T09:29:21.107Z,69.921875
2018-10-18T09:29:44.134Z,69.921875
2018-10-18T09:30:06.256Z,70.324707
2018-10-18T09:30:29.200Z,70.324707
2018-10-18T09:30:50.750Z,70.526123
2018-10-18T09:31:12.383Z,70.825195
2018-10-18T09:31:33.625Z,70.825195
2018-10-18T09:31:55.926Z,71.234131
2018-10-18T09:32:17.655Z,71.435547
2018-10-18T09:32:39.560Z,71.032715
2018-10-18T09:33:02.884Z,70.422363
2018-10-18T09:33:23.984Z,70.422363
2018-10-18T09:33:45.688Z,70.422363
2018-10-18T09:34:06.408Z,70.727539
2018-10-18T09:34:28.106Z,71.234131
2018-10-18T09:34:50.051Z,71.435547
2018-10-18T09:35:12.190Z,71.435547
2018-10-18T09:35:34.900Z,71.66748
2018-10-18T09:35:57.298Z,71.569824
2018-10-18T09:36:18.646Z,71.600342
2018-10-18T09:36:39.403Z,72.30835
2018-10-18T09:37:01.375Z,72.747803
2018-10-18T09:37:30.111Z,73.254395
2018-10-18T09:38:09.763Z,73.754883
2018-10-18T09:38:38.952Z,74.060059
2018-10-18T09:39:16.141Z,74.261475
2018-10-18T09:40:11.382Z,74.462891
2018-10-18T09:40:49.548Z,74.127197
2018-10-18T09:41:42.272Z,74.023438
2018-10-18T09:42:26.232Z,74.023438
2018-10-18T09:44:09.049Z,74.530029
2018-10-18T09:44:29.492Z,74.530029
2018-10-18T09:44:57.881Z,74.224854
2018-10-18T09:45:38.349Z,74.969482
2018-10-18T09:46:22.623Z,75.372314
2018-10-18T09:47:15.286Z,75.67749
2018-10-18T09:47:36.364Z,75.67749
2018-10-18T09:48:17.865Z,75.170898
2018-10-18T09:49:01.563Z,74.871826
2018-10-18T09:49:47.982Z,74.768066
2018-10-18T09:50:38.352Z,75.878906
2018-10-18T09:51:24.150Z,76.245117
2018-10-18T09:52:07.777Z,75.335693
2018-10-18T09:52:56.542Z,75.134277
2018-10-18T09:53:39.107Z,75.238037
2018-10-18T09:54:17.839Z,74.835205
2018-10-18T09:54:50.095Z,75.335693
2018-10-18T09:55:35.705Z,75.305176
2018-10-18T09:56:24.790Z,75.402832
2018-10-18T09:57:05.423Z,75.201416
2018-10-18T09:57:36.632Z,75.402832
2018-10-18T09:58:10.418Z,75.201416
2018-10-18T09:58:58.291Z,75.305176
2018-10-18T09:59:31.894Z,75.402832
2018-10-18T10:00:26.016Z,74.694824
2018-10-18T10:00:51.393Z,74.89624
2018-10-18T10:01:33.684Z,74.194336
2018-10-18T10:02:21.925Z,74.395752
2018-10-18T10:02:54.504Z,74.694824
2018-10-18T10:03:56.818Z,74.932861
2018-10-18T10:04:46.755Z,74.731445
2018-10-18T10:05:32.478Z,75.543213
2018-10-18T10:06:24.250Z,74.835205
2018-10-18T10:07:26.140Z,75.335693
2018-10-18T10:08:11.876Z,75.842285
2018-10-18T10:09:01.047Z,76.147461
2018-10-18T10:09:47.997Z,75.842285
2018-10-18T10:10:36.781Z,76.281738
2018-10-18T10:11:29.713Z,76.184082
2018-10-18T10:12:22.758Z,76.928711
2018-10-18T10:12:55.675Z,77.770996
2018-10-18T10:13:28.137Z,78.076172
2018-10-18T10:14:08.618Z,78.442383
2018-10-18T10:14:31.972Z,78.948975
2018-10-18T10:15:20.014Z,78.845215
2018-10-18T10:16:06.337Z,78.405762
2018-10-18T10:17:02.717Z,78.100586
2018-10-18T10:17:55.612Z,77.600098
2018-10-18T10:18:26.362Z,77.563477
2018-10-18T10:18:47.079Z,78.167725
2018-10-18T10:19:07.911Z,78.063965
2018-10-18T10:19:29.497Z,77.459717
2018-10-18T10:19:49.943Z,78.063965
2018-10-18T10:20:10.522Z,78.265381
2018-10-18T10:20:31.991Z,78.00293
2018-10-18T10:20:52.575Z,78.100586
2018-10-18T10:21:13.072Z,77.89917
2018-10-18T10:21:33.551Z,77.89917
2018-10-18T10:21:54.291Z,77.89917
2018-10-18T10:22:14.861Z,78.503418
2018-10-18T10:22:35.427Z,78.100586
2018-10-18T10:22:56.696Z,77.294922
2018-10-18T10:23:17.464Z,76.989746
2018-10-18T10:23:37.896Z,76.989746
2018-10-18T10:23:58.673Z,76.989746
2018-10-18T10:24:19.328Z,77.026367
2018-10-18T10:24:40.513Z,76.519775
2018-10-18T10:25:00.724Z,76.116943
2018-10-18T10:25:21.038Z,76.049805
2018-10-18T10:25:41.905Z,75.952148
2018-10-18T10:26:02.927Z,75.579834
2018-10-18T10:26:23.259Z,74.975586
2018-10-18T10:26:43.288Z,75.177002
2018-10-18T10:27:03.767Z,75.177002
2018-10-18T10:27:24.656Z,74.871826
2018-10-18T10:27:46.259Z,75.073242
2018-10-18T10:28:06.882Z,75.073242
2018-10-18T10:28:27.680Z,74.77417
2018-10-18T10:28:48.389Z,74.163818
2018-10-18T10:29:09.163Z,73.657227
2018-10-18T10:29:29.859Z,73.052979
2018-10-18T10:29:50.921Z,72.442627
2018-10-18T10:30:10.934Z,72.241211
2018-10-18T10:30:30.890Z,72.039795
2018-10-18T10:30:50.768Z,71.942139
2018-10-18T10:31:10.776Z,72.241211
2018-10-18T10:31:31.551Z,72.344971
2018-10-18T10:31:52.677Z,71.636963
2018-10-18T10:32:13.557Z,72.143555
2018-10-18T10:32:34.370Z,72.546387
2018-10-18T10:32:55.595Z,72.344971
2018-10-18T10:33:16.342Z,71.942139
2018-10-18T10:33:36.667Z,72.241211
2018-10-18T10:33:58.232Z,72.143555
2018-10-18T10:34:18.825Z,72.143555
2018-10-18T10:34:39.675Z,71.942139
2018-10-18T10:35:00.976Z,71.972656
2018-10-18T10:35:20.940Z,72.277832
2018-10-18T10:35:41.545Z,72.076416
2018-10-18T10:36:02.257Z,72.076416
2018-10-18T10:36:22.683Z,72.076416
2018-10-18T10:36:42.971Z,71.66748
2018-10-18T10:37:03.331Z,71.368408
2018-10-18T10:37:23.999Z,71.569824
2018-10-18T10:37:44.603Z,71.368408
2018-10-18T10:38:04.908Z,71.264648
2018-10-18T10:38:25.533Z,71.972656
2018-10-18T10:38:46.026Z,71.77124
2018-10-18T10:39:05.661Z,72.076416
2018-10-18T10:39:25.497Z,71.569824
2018-10-18T10:39:45.609Z,71.77124
2018-10-18T10:40:06.536Z,71.160889
2018-10-18T10:40:27.030Z,71.130371
2018-10-18T10:40:47.466Z,70.52002
2018-10-18T10:41:08.085Z,70.727539
2018-10-18T10:41:29.491Z,71.026611
2018-10-18T10:41:50.461Z,70.623779
2018-10-18T10:42:10.724Z,70.422363
2018-10-18T10:42:31.738Z,70.422363
2018-10-18T10:42:52.488Z,69.915771
2018-10-18T10:43:12.883Z,70.52002
2018-10-18T10:43:33.503Z,70.727539
2018-10-18T10:43:54.335Z,70.825195
2018-10-18T10:44:15.703Z,71.234131
2018-10-18T10:44:36.330Z,71.331787
2018-10-18T10:44:57.081Z,71.435547
2018-10-18T10:45:18.093Z,71.130371
2018-10-18T10:45:38.765Z,71.234131
2018-10-18T10:45:59.796Z,71.435547
2018-10-18T10:46:21.270Z,70.928955
2018-10-18T10:46:41.980Z,70.623779
2018-10-18T10:47:02.696Z,70.52002
2018-10-18T10:47:23.300Z,70.318604
2018-10-18T10:47:43.941Z,70.318604
2018-10-18T10:48:04.475Z,70.220947
2018-10-18T10:48:24.829Z,71.026611
2018-10-18T10:48:45.460Z,71.435547
2018-10-18T10:49:06.221Z,71.130371
2018-10-18T10:49:27.086Z,71.234131
2018-10-18T10:49:47.526Z,71.234131
2018-10-18T10:50:08.281Z,71.234131
2018-10-18T10:50:28.945Z,70.422363
2018-10-18T10:50:49.320Z,69.812012
2018-10-18T10:51:09.883Z,70.251465
2018-10-18T10:51:30.785Z,70.758057
2018-10-18T10:51:51.514Z,70.654297
2018-10-18T10:52:12.748Z,70.251465
2018-10-18T10:52:33.712Z,70.050049
2018-10-18T10:52:54.418Z,70.452881
2018-10-18T10:53:15.196Z,70.959473
2018-10-18T10:53:36.863Z,71.264648
2018-10-18T10:53:57.675Z,71.160889
2018-10-18T10:54:18.564Z,71.264648
2018-10-18T10:54:38.886Z,71.66748
2018-10-18T10:55:00.585Z,71.264648
2018-10-18T10:55:21.147Z,71.234131
2018-10-18T10:55:41.996Z,71.130371
2018-10-18T10:56:02.983Z,71.026611
2018-10-18T10:56:24.517Z,70.019531
2018-10-18T10:56:45.847Z,69.915771
2018-10-18T10:57:07.192Z,70.422363
2018-10-18T10:57:28.585Z,69.714355
2018-10-18T10:57:49.508Z,70.184326
2018-10-18T10:58:10.062Z,70.623779
2018-10-18T10:58:30.468Z,70.892334
2018-10-18T10:58:51.438Z,70.892334
2018-10-18T10:59:11.679Z,70.794678
2018-10-18T10:59:32.130Z,70.690918
2018-10-18T10:59:52.729Z,70.690918
2018-10-18T11:00:14.369Z,70.08667
2018-10-18T11:00:34.658Z,69.476318
2018-10-18T11:00:56.073Z,69.073486
2018-10-18T11:01:16.321Z,69.378662
2018-10-18T11:01:36.838Z,69.781494
2018-10-18T11:01:57.115Z,69.781494
2018-10-18T11:02:18.523Z,70.08667
2018-10-18T11:02:39.044Z,69.885254
2018-10-18T11:02:59.150Z,69.677734
2018-10-18T11:03:19.666Z,70.288086
2018-10-18T11:03:39.926Z,70.794678
2018-10-18T11:04:00.325Z,70.288086
2018-10-18T11:04:20.887Z,69.677734
2018-10-18T11:04:41.403Z,69.98291
2018-10-18T11:05:01.662Z,69.781494
2018-10-18T11:05:21.921Z,70.184326
2018-10-18T11:05:42.544Z,69.781494
2018-10-18T11:06:02.836Z,69.677734
2018-10-18T11:06:23.993Z,68.670654
2018-10-18T11:06:44.131Z,68.261719
2018-10-18T11:07:04.754Z,68.768311
2018-10-18T11:07:25.150Z,68.969727
2018-10-18T11:07:45.808Z,68.969727
2018-10-18T11:08:06.488Z,69.073486
2018-10-18T11:08:28.868Z,68.469238
2018-10-18T11:08:52.744Z,68.469238
2018-10-18T11:09:13.032Z,68.768311
2018-10-18T11:09:33.503Z,69.073486
2018-10-18T11:09:53.836Z,69.073486
2018-10-18T11:10:14.331Z,69.177246
2018-10-18T11:10:34.801Z,68.469238
2018-10-18T11:10:55.503Z,68.261719
2018-10-18T11:11:16.482Z,68.566895
2018-10-18T11:11:36.085Z,68.469238
2018-10-18T11:11:56.702Z,68.969727
2018-10-18T11:12:16.221Z,68.969727
2018-10-18T11:12:35.907Z,68.365479
2018-10-18T11:12:55.377Z,68.670654
2018-10-18T11:13:14.915Z,68.768311
2018-10-18T11:13:34.427Z,69.274902
2018-10-18T11:13:53.964Z,69.073486
2018-10-18T11:14:13.788Z,68.969727
2018-10-18T11:14:33.297Z,69.378662
2018-10-18T11:14:52.899Z,69.274902
2018-10-18T11:15:12.499Z,68.87207
2018-10-18T11:15:32.066Z,68.670654
2018-10-18T11:15:51.608Z,69.073486
2018-10-18T11:16:11.112Z,69.378662
2018-10-18T11:16:30.711Z,69.580078
2018-10-18T11:16:50.347Z,69.274902
2018-10-18T11:17:10.081Z,68.164062
2018-10-18T11:17:29.486Z,68.261719
2018-10-18T11:17:49.001Z,68.566895
2018-10-18T11:18:08.629Z,68.566895
2018-10-18T11:18:28.288Z,68.87207
2018-10-18T11:18:47.963Z,68.670654
2018-10-18T11:19:07.605Z,68.261719
2018-10-18T11:19:27.149Z,67.76123
2018-10-18T11:19:46.660Z,67.76123
2018-10-18T11:20:06.287Z,67.76123
2018-10-18T11:20:25.712Z,67.254639
2018-10-18T11:20:45.269Z,67.858887
2018-10-18T11:21:04.864Z,68.060303
2018-10-18T11:21:24.409Z,66.949463
2018-10-18T11:21:44.056Z,66.845703
2018-10-18T11:22:03.920Z,67.053223
2018-10-18T11:22:23.928Z,67.858887
2018-10-18T11:22:43.855Z,67.352295
2018-10-18T11:23:03.670Z,67.150879
2018-10-18T11:23:23.203Z,66.442871
2018-10-18T11:23:43.659Z,66.577148
2018-10-18T11:24:03.290Z,67.352295
2018-10-18T11:24:22.773Z,67.858887
2018-10-18T11:24:42.332Z,67.76123
2018-10-18T11:25:01.893Z,67.962646
2018-10-18T11:25:21.513Z,67.657471
2018-10-18T11:25:41.051Z,67.456055
2018-10-18T11:26:00.636Z,67.254639
2018-10-18T11:26:20.785Z,66.748047
2018-10-18T11:26:40.372Z,66.845703
2018-10-18T11:27:00.018Z,66.845703
2018-10-18T11:27:19.624Z,66.644287
2018-10-18T11:27:39.504Z,66.949463
2018-10-18T11:27:59.054Z,66.949463
2018-10-18T11:28:19.196Z,66.442871
2018-10-18T11:28:38.821Z,65.637207
2018-10-18T11:28:58.463Z,65.533447
2018-10-18T11:29:18.085Z,65.734863
2018-10-18T11:29:38.813Z,66.442871
2018-10-18T11:29:58.560Z,66.442871
2018-10-18T11:30:18.207Z,66.345215
2018-10-18T11:30:37.865Z,66.748047
2018-10-18T11:30:57.441Z,67.053223
2018-10-18T11:31:17.121Z,67.150879
2018-10-18T11:31:36.647Z,67.553711
2018-10-18T11:31:56.257Z,67.456055
2018-10-18T11:32:15.960Z,66.845703
2018-10-18T11:32:35.376Z,66.845703
2018-10-18T11:32:54.959Z,66.644287
2018-10-18T11:33:14.658Z,67.053223
2018-10-18T11:33:34.143Z,67.456055
2018-10-18T11:33:53.691Z,68.029785
2018-10-18T11:34:13.394Z,67.932129
2018-10-18T11:34:32.916Z,67.932129
2018-10-18T11:34:52.402Z,68.231201
2018-10-18T11:35:12.184Z,68.029785
2018-10-18T11:35:31.786Z,68.334961
2018-10-18T11:35:51.292Z,68.634033
2018-10-18T11:36:11.031Z,68.029785
2018-10-18T11:36:30.365Z,67.626953
2018-10-18T11:36:49.894Z,68.029785